»·PEaware :: SKW5582 KABQ-KPHX

SKW5582 :: KABQ-KPHX

FLIGHT INFORMATION

Flight Status: Arrived
Operator:
SkyWest Airlines
More flights by this operator :: More flights under this callsign
Pilot: Max W. (2591)
Aircraft: CANADAIR CL-600 CRJ-700
(CRJ7)
More flights by this aircraft type
Origin: KABQ Albuquerque Intl Sunport
United States
Destination: KPHX Phoenix Sky Harbor Intl
United States
More flights between these airports :: More routes between these airports
Route: +RDRN3 ZUN EAGUL6
File this flight plan on PilotEdge
Remarks:
Altitude:
(Current/Filed)
30,000ft
Speed:
(Current/Filed)
450kts
Departed: 09-Oct-17 04:27 PM
Arrived: 09-Oct-17 05:22 PM
Distance/Time
Traveled:
285nm/0:55
Distance/Time
To Go:
Arrived

Flight Plot

Page will automatically refresh every two minutes.

Flight plan parsing failed; only flown route is shown


Map Options




Map Legend


Flown Route
Filed Route
Departure Airport
Arrival Airport
Navaid (VOR, NDB)
Fix

Horizontal Profiles

Position Reports

Time Latitude Longitude Heading Altitude Ground
Speed
09-Oct-17 16:14 35.046951 -106.615733 0 5362ft 0kts
09-Oct-17 16:15 35.046951 -106.615733 0 5362ft 0kts
09-Oct-17 16:16 35.046951 -106.615733 0 5362ft 0kts
09-Oct-17 16:17 35.046951 -106.615733 0 5362ft 0kts
09-Oct-17 16:18 35.046746 -106.615733 359 5362ft 2kts
09-Oct-17 16:19 35.046478 -106.615732 8 5362ft 0kts
09-Oct-17 16:20 35.046323 -106.615388 137 5362ft 8kts
09-Oct-17 16:21 35.041912 -106.613829 178 5362ft 23kts
09-Oct-17 16:22 35.038182 -106.614004 203 5362ft 3kts
09-Oct-17 16:23 35.035130 -106.617175 223 5362ft 24kts
09-Oct-17 16:24 35.031062 -106.622142 225 5362ft 21kts
09-Oct-17 16:25 35.026007 -106.628239 227 5362ft 30kts
09-Oct-17 16:26 35.023696 -106.630895 222 5362ft 0kts
09-Oct-17 16:27 35.023694 -106.630897 222 5362ft 0kts
09-Oct-17 16:28 35.023647 -106.630948 219 5362ft 0kts
09-Oct-17 16:29 35.022634 -106.630123 42 5362ft 0kts
09-Oct-17 16:30 35.022636 -106.630121 42 5362ft 0kts
09-Oct-17 16:31 35.026460 -106.625535 42 5362ft 95kts
09-Oct-17 16:32 35.060174 -106.593467 356 6914ft 177kts
09-Oct-17 16:33 35.081244 -106.649244 277 9489ft 225kts
09-Oct-17 16:34 35.089299 -106.733589 274 11853ft 265kts
09-Oct-17 16:35 35.100346 -106.826489 282 14176ft 289kts
09-Oct-17 16:36 35.108124 -106.930671 259 15825ft 336kts
09-Oct-17 16:37 35.081492 -107.046854 257 17959ft 364kts
09-Oct-17 16:38 35.057321 -107.168144 260 20486ft 373kts
09-Oct-17 16:39 35.033959 -107.293578 267 22703ft 380kts
09-Oct-17 16:40 35.028584 -107.423193 273 24605ft 387kts
09-Oct-17 16:41 35.025858 -107.556339 273 26324ft 396kts
09-Oct-17 16:42 35.021893 -107.692014 272 27861ft 405kts
09-Oct-17 16:43 35.017708 -107.829980 272 29515ft 404kts
09-Oct-17 16:44 35.013296 -107.968368 272 30275ft 415kts
09-Oct-17 16:45 35.008059 -108.108775 272 30273ft 415kts
09-Oct-17 16:46 35.002468 -108.251413 272 30270ft 427kts
09-Oct-17 16:47 34.996888 -108.397176 272 30265ft 431kts
09-Oct-17 16:48 34.991593 -108.543149 272 30260ft 431kts
09-Oct-17 16:49 34.986529 -108.687960 272 30256ft 423kts
09-Oct-17 16:50 34.983136 -108.830887 279 30254ft 417kts
09-Oct-17 16:51 34.991269 -108.971703 272 30256ft 419kts
09-Oct-17 16:52 34.966876 -109.112398 253 30251ft 438kts
09-Oct-17 16:53 34.913680 -109.248113 250 30242ft 439kts
09-Oct-17 16:54 34.866064 -109.385217 253 30244ft 440kts
09-Oct-17 16:55 34.817838 -109.522229 252 30249ft 438kts
09-Oct-17 16:56 34.769885 -109.657872 251 30250ft 436kts
09-Oct-17 16:57 34.721735 -109.793879 251 30257ft 439kts
09-Oct-17 16:58 34.673355 -109.930537 251 30264ft 442kts
09-Oct-17 16:59 34.624386 -110.067970 250 30273ft 445kts
09-Oct-17 17:00 34.574611 -110.206526 250 30273ft 448kts
09-Oct-17 17:01 34.524580 -110.345043 250 30270ft 449kts
09-Oct-17 17:02 34.473455 -110.483111 249 29116ft 434kts
09-Oct-17 17:03 34.423069 -110.613970 249 25850ft 425kts
09-Oct-17 17:04 34.375246 -110.739272 250 24237ft 380kts
09-Oct-17 17:05 34.323247 -110.843312 233 23926ft 365kts
09-Oct-17 17:06 34.249551 -110.931700 230 22156ft 368kts
09-Oct-17 17:07 34.180124 -111.020560 232 19731ft 359kts
09-Oct-17 17:08 34.114752 -111.105191 232 17986ft 347kts
09-Oct-17 17:09 34.050267 -111.187986 230 16342ft 319kts
09-Oct-17 17:10 33.990391 -111.264852 230 15190ft 321kts
09-Oct-17 17:11 33.928676 -111.343846 229 14183ft 307kts
09-Oct-17 17:12 33.871499 -111.418038 234 13198ft 335kts
09-Oct-17 17:13 33.817463 -111.524128 241 12901ft 383kts
09-Oct-17 17:14 33.762044 -111.629799 238 11813ft 371kts
09-Oct-17 17:15 33.705785 -111.734587 238 10703ft 375kts
09-Oct-17 17:17 33.649902 -111.840228 237 9794ft 371kts
09-Oct-17 17:18 33.596854 -111.939731 238 9727ft 299kts
09-Oct-17 17:19 33.553094 -112.022036 237 7252ft 300kts
09-Oct-17 17:20 33.521815 -112.106406 271 6730ft 243kts
09-Oct-17 17:21 33.520252 -112.191148 268 4985ft 257kts
09-Oct-17 17:22 33.496692 -112.262223 203 4828ft 243kts
09-Oct-17 17:23 33.435195 -112.248186 120 3773ft 234kts
09-Oct-17 17:24 33.429367 -112.178383 86 3401ft 217kts
09-Oct-17 17:25 33.428880 -112.108019 87 2628ft 203kts
09-Oct-17 17:26 33.428856 -112.046584 91 1513ft 164kts
09-Oct-17 17:27 33.429780 -112.010199 66 1142ft 5kts
09-Oct-17 17:28 33.432092 -112.008843 275 1142ft 10kts

Navigation Log

Ident Type
Flight plan parsing failed, navigation log unavailable